sensor_id;sensor_type;location;lat;lon;timestamp;temperature;humidity
41437;DHT22;27178;49.460;10.850;2023-06-22T00:00:35;25.40;65.80
41437;DHT22;27178;49.460;10.850;2023-06-22T00:03:06;25.40;65.90
41437;DHT22;27178;49.460;10.850;2023-06-22T00:05:34;25.30;66.10
41437;DHT22;27178;49.460;10.850;2023-06-22T00:08:04;25.30;66.10
41437;DHT22;27178;49.460;10.850;2023-06-22T00:10:34;25.30;66.30
41437;DHT22;27178;49.460;10.850;2023-06-22T00:13:02;25.30;66.50
41437;DHT22;27178;49.460;10.850;2023-06-22T00:15:31;25.30;66.60
41437;DHT22;27178;49.460;10.850;2023-06-22T00:18:04;25.30;66.70
41437;DHT22;27178;49.460;10.850;2023-06-22T00:20:35;25.30;66.70
41437;DHT22;27178;49.460;10.850;2023-06-22T00:23:08;25.30;66.80
41437;DHT22;27178;49.460;10.850;2023-06-22T00:25:39;25.30;66.80
41437;DHT22;27178;49.460;10.850;2023-06-22T00:28:08;25.20;66.90
41437;DHT22;27178;49.460;10.850;2023-06-22T00:30:36;25.20;66.90
41437;DHT22;27178;49.460;10.850;2023-06-22T00:33:05;25.20;66.80
41437;DHT22;27178;49.460;10.850;2023-06-22T00:35:34;25.20;67.10
41437;DHT22;27178;49.460;10.850;2023-06-22T00:38:02;25.10;67.10
41437;DHT22;27178;49.460;10.850;2023-06-22T00:40:32;25.10;67.30
41437;DHT22;27178;49.460;10.850;2023-06-22T00:43:02;25.10;67.50
41437;DHT22;27178;49.460;10.850;2023-06-22T00:45:30;25.10;67.50
41437;DHT22;27178;49.460;10.850;2023-06-22T00:47:59;25.10;67.70
41437;DHT22;27178;49.460;10.850;2023-06-22T00:50:29;25.00;67.90
41437;DHT22;27178;49.460;10.850;2023-06-22T00:53:03;25.00;67.70
41437;DHT22;27178;49.460;10.850;2023-06-22T00:55:36;25.00;67.90
41437;DHT22;27178;49.460;10.850;2023-06-22T00:58:07;25.00;67.80
41437;DHT22;27178;49.460;10.850;2023-06-22T01:00:38;25.00;67.80
41437;DHT22;27178;49.460;10.850;2023-06-22T01:03:07;25.00;67.80
41437;DHT22;27178;49.460;10.850;2023-06-22T01:05:38;25.00;68.00
41437;DHT22;27178;49.460;10.850;2023-06-22T01:08:16;24.90;68.10
41437;DHT22;27178;49.460;10.850;2023-06-22T01:10:50;24.90;68.30
41437;DHT22;27178;49.460;10.850;2023-06-22T01:13:27;24.90;68.20
41437;DHT22;27178;49.460;10.850;2023-06-22T01:16:02;24.90;68.50
41437;DHT22;27178;49.460;10.850;2023-06-22T01:18:31;24.90;68.30
41437;DHT22;27178;49.460;10.850;2023-06-22T01:21:04;24.80;68.20
41437;DHT22;27178;49.460;10.850;2023-06-22T01:23:48;24.80;68.30
41437;DHT22;27178;49.460;10.850;2023-06-22T01:26:20;24.80;68.50
41437;DHT22;27178;49.460;10.850;2023-06-22T01:28:52;24.70;68.30
41437;DHT22;27178;49.460;10.850;2023-06-22T01:31:24;24.70;68.50
41437;DHT22;27178;49.460;10.850;2023-06-22T01:33:54;24.70;68.50
41437;DHT22;27178;49.460;10.850;2023-06-22T01:36:23;24.60;68.80
41437;DHT22;27178;49.460;10.850;2023-06-22T01:38:53;24.60;68.90
41437;DHT22;27178;49.460;10.850;2023-06-22T01:41:23;24.50;69.00
41437;DHT22;27178;49.460;10.850;2023-06-22T01:43:54;24.50;69.20
41437;DHT22;27178;49.460;10.850;2023-06-22T01:46:23;24.50;69.30
41437;DHT22;27178;49.460;10.850;2023-06-22T01:48:53;24.50;69.40
41437;DHT22;27178;49.460;10.850;2023-06-22T01:51:21;24.50;69.40
41437;DHT22;27178;49.460;10.850;2023-06-22T01:53:49;24.40;69.40
41437;DHT22;27178;49.460;10.850;2023-06-22T01:56:18;24.40;69.40
41437;DHT22;27178;49.460;10.850;2023-06-22T01:58:50;24.40;69.50
41437;DHT22;27178;49.460;10.850;2023-06-22T02:01:24;24.40;69.60
41437;DHT22;27178;49.460;10.850;2023-06-22T02:04:01;24.40;69.90
41437;DHT22;27178;49.460;10.850;2023-06-22T02:06:34;24.40;69.90
41437;DHT22;27178;49.460;10.850;2023-06-22T02:09:08;24.40;69.60
41437;DHT22;27178;49.460;10.850;2023-06-22T02:11:41;24.40;69.80
41437;DHT22;27178;49.460;10.850;2023-06-22T02:14:11;24.40;69.80
41437;DHT22;27178;49.460;10.850;2023-06-22T02:16:42;24.40;69.80
41437;DHT22;27178;49.460;10.850;2023-06-22T02:19:11;24.40;69.80
41437;DHT22;27178;49.460;10.850;2023-06-22T02:21:40;24.40;69.70
41437;DHT22;27178;49.460;10.850;2023-06-22T02:24:08;24.30;69.70
41437;DHT22;27178;49.460;10.850;2023-06-22T02:26:37;24.30;69.80
41437;DHT22;27178;49.460;10.850;2023-06-22T02:29:07;24.30;69.80
41437;DHT22;27178;49.460;10.850;2023-06-22T02:31:35;24.30;69.60
41437;DHT22;27178;49.460;10.850;2023-06-22T02:34:05;24.30;69.80
41437;DHT22;27178;49.460;10.850;2023-06-22T02:36:33;24.30;69.90
41437;DHT22;27178;49.460;10.850;2023-06-22T02:39:02;24.30;70.10
41437;DHT22;27178;49.460;10.850;2023-06-22T02:41:31;24.30;70.10
41437;DHT22;27178;49.460;10.850;2023-06-22T02:43:59;24.30;70.10
41437;DHT22;27178;49.460;10.850;2023-06-22T02:46:27;24.30;70.30
41437;DHT22;27178;49.460;10.850;2023-06-22T02:48:56;24.30;70.50
41437;DHT22;27178;49.460;10.850;2023-06-22T02:51:26;24.30;70.50
41437;DHT22;27178;49.460;10.850;2023-06-22T02:53:54;24.30;70.50
41437;DHT22;27178;49.460;10.850;2023-06-22T02:56:24;24.30;70.50
41437;DHT22;27178;49.460;10.850;2023-06-22T02:58:53;24.30;70.40
41437;DHT22;27178;49.460;10.850;2023-06-22T03:01:21;24.30;70.50
41437;DHT22;27178;49.460;10.850;2023-06-22T03:03:52;24.30;70.50
41437;DHT22;27178;49.460;10.850;2023-06-22T03:06:22;24.30;70.50
41437;DHT22;27178;49.460;10.850;2023-06-22T03:08:59;24.30;70.40
41437;DHT22;27178;49.460;10.850;2023-06-22T03:11:27;24.30;70.40
41437;DHT22;27178;49.460;10.850;2023-06-22T03:13:56;24.30;70.40
41437;DHT22;27178;49.460;10.850;2023-06-22T03:16:24;24.20;70.30
41437;DHT22;27178;49.460;10.850;2023-06-22T03:18:53;24.20;70.40
41437;DHT22;27178;49.460;10.850;2023-06-22T03:21:23;24.20;70.50
41437;DHT22;27178;49.460;10.850;2023-06-22T03:23:51;24.20;70.50
41437;DHT22;27178;49.460;10.850;2023-06-22T03:26:21;24.20;70.50
41437;DHT22;27178;49.460;10.850;2023-06-22T03:28:54;24.20;70.50
41437;DHT22;27178;49.460;10.850;2023-06-22T03:31:22;24.20;70.50
41437;DHT22;27178;49.460;10.850;2023-06-22T03:33:51;24.10;70.50
41437;DHT22;27178;49.460;10.850;2023-06-22T03:36:19;24.10;70.60
41437;DHT22;27178;49.460;10.850;2023-06-22T03:38:48;24.00;70.70
41437;DHT22;27178;49.460;10.850;2023-06-22T03:41:17;24.00;70.70
41437;DHT22;27178;49.460;10.850;2023-06-22T03:43:47;24.00;70.90
41437;DHT22;27178;49.460;10.850;2023-06-22T03:46:16;24.00;71.00
41437;DHT22;27178;49.460;10.850;2023-06-22T03:48:44;24.00;70.90
41437;DHT22;27178;49.460;10.850;2023-06-22T03:51:12;23.90;71.00
41437;DHT22;27178;49.460;10.850;2023-06-22T03:53:41;23.90;71.10
41437;DHT22;27178;49.460;10.850;2023-06-22T03:56:10;23.90;71.20
41437;DHT22;27178;49.460;10.850;2023-06-22T03:58:38;23.90;71.40
41437;DHT22;27178;49.460;10.850;2023-06-22T04:01:11;23.90;71.60
41437;DHT22;27178;49.460;10.850;2023-06-22T04:03:41;23.90;71.60
41437;DHT22;27178;49.460;10.850;2023-06-22T04:06:09;23.90;71.80
41437;DHT22;27178;49.460;10.850;2023-06-22T04:08:37;23.90;71.80
41437;DHT22;27178;49.460;10.850;2023-06-22T04:11:06;23.90;71.80
41437;DHT22;27178;49.460;10.850;2023-06-22T04:13:34;23.90;71.80
41437;DHT22;27178;49.460;10.850;2023-06-22T04:16:03;23.90;71.80
41437;DHT22;27178;49.460;10.850;2023-06-22T04:18:33;23.90;72.00
41437;DHT22;27178;49.460;10.850;2023-06-22T04:21:01;23.90;72.20
41437;DHT22;27178;49.460;10.850;2023-06-22T04:23:29;23.90;72.10
41437;DHT22;27178;49.460;10.850;2023-06-22T04:25:58;23.90;72.00
41437;DHT22;27178;49.460;10.850;2023-06-22T04:28:27;23.90;72.30
41437;DHT22;27178;49.460;10.850;2023-06-22T04:30:55;23.90;73.20
41437;DHT22;27178;49.460;10.850;2023-06-22T04:33:29;23.90;72.40
41437;DHT22;27178;49.460;10.850;2023-06-22T04:35:59;24.00;72.70
41437;DHT22;27178;49.460;10.850;2023-06-22T04:38:28;23.90;72.70
41437;DHT22;27178;49.460;10.850;2023-06-22T04:41:00;24.00;72.70
41437;DHT22;27178;49.460;10.850;2023-06-22T04:43:30;24.00;72.70
41437;DHT22;27178;49.460;10.850;2023-06-22T04:45:58;24.00;72.70
41437;DHT22;27178;49.460;10.850;2023-06-22T04:48:30;24.00;72.80
41437;DHT22;27178;49.460;10.850;2023-06-22T04:51:02;24.00;72.90
41437;DHT22;27178;49.460;10.850;2023-06-22T04:53:32;24.10;72.90
41437;DHT22;27178;49.460;10.850;2023-06-22T04:56:01;24.10;72.80
41437;DHT22;27178;49.460;10.850;2023-06-22T04:58:31;24.20;72.90
41437;DHT22;27178;49.460;10.850;2023-06-22T05:01:00;24.20;73.00
41437;DHT22;27178;49.460;10.850;2023-06-22T05:03:30;24.20;73.00
41437;DHT22;27178;49.460;10.850;2023-06-22T05:06:00;24.30;72.90
41437;DHT22;27178;49.460;10.850;2023-06-22T05:08:29;24.30;73.10
41437;DHT22;27178;49.460;10.850;2023-06-22T05:10:58;24.30;72.80
41437;DHT22;27178;49.460;10.850;2023-06-22T05:13:32;24.30;72.90
41437;DHT22;27178;49.460;10.850;2023-06-22T05:16:01;24.40;73.00
41437;DHT22;27178;49.460;10.850;2023-06-22T05:18:30;24.40;72.90
41437;DHT22;27178;49.460;10.850;2023-06-22T05:21:00;24.50;73.00
41437;DHT22;27178;49.460;10.850;2023-06-22T05:23:30;24.50;72.90
41437;DHT22;27178;49.460;10.850;2023-06-22T05:25:58;24.50;72.80
41437;DHT22;27178;49.460;10.850;2023-06-22T05:28:26;24.50;72.70
41437;DHT22;27178;49.460;10.850;2023-06-22T05:30:54;24.50;72.80
41437;DHT22;27178;49.460;10.850;2023-06-22T05:33:23;24.60;72.80
41437;DHT22;27178;49.460;10.850;2023-06-22T05:35:51;24.50;72.70
41437;DHT22;27178;49.460;10.850;2023-06-22T05:38:22;24.60;72.70
41437;DHT22;27178;49.460;10.850;2023-06-22T05:40:50;24.60;72.70
41437;DHT22;27178;49.460;10.850;2023-06-22T05:43:19;24.60;72.70
41437;DHT22;27178;49.460;10.850;2023-06-22T05:45:47;24.60;72.60
41437;DHT22;27178;49.460;10.850;2023-06-22T05:48:15;24.70;72.80
41437;DHT22;27178;49.460;10.850;2023-06-22T05:50:44;24.70;72.70
41437;DHT22;27178;49.460;10.850;2023-06-22T05:53:12;24.70;72.50
41437;DHT22;27178;49.460;10.850;2023-06-22T05:55:42;24.80;72.60
41437;DHT22;27178;49.460;10.850;2023-06-22T05:58:10;24.80;72.60
41437;DHT22;27178;49.460;10.850;2023-06-22T06:00:40;24.80;72.50
41437;DHT22;27178;49.460;10.850;2023-06-22T06:03:09;24.80;72.40
41437;DHT22;27178;49.460;10.850;2023-06-22T06:05:41;24.80;72.60
41437;DHT22;27178;49.460;10.850;2023-06-22T06:08:10;24.90;72.60
41437;DHT22;27178;49.460;10.850;2023-06-22T06:10:51;24.90;72.40
41437;DHT22;27178;49.460;10.850;2023-06-22T06:13:22;25.10;72.50
41437;DHT22;27178;49.460;10.850;2023-06-22T06:15:50;25.00;72.30
41437;DHT22;27178;49.460;10.850;2023-06-22T06:18:21;25.00;72.20
41437;DHT22;27178;49.460;10.850;2023-06-22T06:20:50;25.10;72.30
41437;DHT22;27178;49.460;10.850;2023-06-22T06:23:18;25.10;72.10
41437;DHT22;27178;49.460;10.850;2023-06-22T06:25:47;25.10;71.90
41437;DHT22;27178;49.460;10.850;2023-06-22T06:28:16;25.10;72.40
41437;DHT22;27178;49.460;10.850;2023-06-22T06:30:44;25.10;72.10
41437;DHT22;27178;49.460;10.850;2023-06-22T06:33:14;25.10;72.10
41437;DHT22;27178;49.460;10.850;2023-06-22T06:35:43;25.20;72.00
41437;DHT22;27178;49.460;10.850;2023-06-22T06:38:11;25.20;72.00
41437;DHT22;27178;49.460;10.850;2023-06-22T06:40:39;25.20;72.00
41437;DHT22;27178;49.460;10.850;2023-06-22T06:43:07;25.20;72.00
41437;DHT22;27178;49.460;10.850;2023-06-22T06:45:38;25.30;72.00
41437;DHT22;27178;49.460;10.850;2023-06-22T06:48:06;25.30;71.80
41437;DHT22;27178;49.460;10.850;2023-06-22T06:50:35;25.30;71.60
41437;DHT22;27178;49.460;10.850;2023-06-22T06:53:03;25.30;71.60
41437;DHT22;27178;49.460;10.850;2023-06-22T06:55:32;25.30;72.20
41437;DHT22;27178;49.460;10.850;2023-06-22T06:58:01;25.30;72.10
41437;DHT22;27178;49.460;10.850;2023-06-22T07:00:31;25.40;72.10
41437;DHT22;27178;49.460;10.850;2023-06-22T07:03:01;25.40;72.00
41437;DHT22;27178;49.460;10.850;2023-06-22T07:05:30;25.40;72.00
41437;DHT22;27178;49.460;10.850;2023-06-22T07:07:58;25.50;71.90
41437;DHT22;27178;49.460;10.850;2023-06-22T07:10:27;25.50;71.90
41437;DHT22;27178;49.460;10.850;2023-06-22T07:12:56;25.50;71.80
41437;DHT22;27178;49.460;10.850;2023-06-22T07:15:24;25.50;71.90
41437;DHT22;27178;49.460;10.850;2023-06-22T07:17:53;25.60;72.00
41437;DHT22;27178;49.460;10.850;2023-06-22T07:20:22;25.60;72.00
41437;DHT22;27178;49.460;10.850;2023-06-22T07:22:51;25.70;72.00
41437;DHT22;27178;49.460;10.850;2023-06-22T07:25:20;25.70;71.90
41437;DHT22;27178;49.460;10.850;2023-06-22T07:27:57;25.70;71.90
41437;DHT22;27178;49.460;10.850;2023-06-22T07:30:26;25.80;71.90
41437;DHT22;27178;49.460;10.850;2023-06-22T07:32:56;25.80;71.80
41437;DHT22;27178;49.460;10.850;2023-06-22T07:35:27;25.80;71.80
41437;DHT22;27178;49.460;10.850;2023-06-22T07:37:55;25.90;71.70
41437;DHT22;27178;49.460;10.850;2023-06-22T07:40:23;25.90;71.70
41437;DHT22;27178;49.460;10.850;2023-06-22T07:42:52;25.90;71.60
41437;DHT22;27178;49.460;10.850;2023-06-22T07:45:20;25.90;71.60
41437;DHT22;27178;49.460;10.850;2023-06-22T07:47:49;26.00;71.60
41437;DHT22;27178;49.460;10.850;2023-06-22T07:50:18;26.00;71.40
41437;DHT22;27178;49.460;10.850;2023-06-22T07:52:48;26.10;71.50
41437;DHT22;27178;49.460;10.850;2023-06-22T07:55:16;26.10;71.60
41437;DHT22;27178;49.460;10.850;2023-06-22T07:57:46;26.20;72.00
41437;DHT22;27178;49.460;10.850;2023-06-22T08:00:15;26.20;70.40
41437;DHT22;27178;49.460;10.850;2023-06-22T08:02:45;26.20;69.70
41437;DHT22;27178;49.460;10.850;2023-06-22T08:05:15;26.20;69.60
41437;DHT22;27178;49.460;10.850;2023-06-22T08:07:49;26.30;69.40
41437;DHT22;27178;49.460;10.850;2023-06-22T08:10:19;26.40;68.60
41437;DHT22;27178;49.460;10.850;2023-06-22T08:12:47;26.40;68.50
41437;DHT22;27178;49.460;10.850;2023-06-22T08:15:16;26.40;68.30
41437;DHT22;27178;49.460;10.850;2023-06-22T08:17:44;26.40;68.00
41437;DHT22;27178;49.460;10.850;2023-06-22T08:20:13;26.50;67.80
41437;DHT22;27178;49.460;10.850;2023-06-22T08:22:42;25.50;66.70
41437;DHT22;27178;49.460;10.850;2023-06-22T08:25:12;26.50;67.40
41437;DHT22;27178;49.460;10.850;2023-06-22T08:27:45;26.50;67.50
41437;DHT22;27178;49.460;10.850;2023-06-22T08:30:14;26.60;66.40
41437;DHT22;27178;49.460;10.850;2023-06-22T08:32:43;26.60;66.90
41437;DHT22;27178;49.460;10.850;2023-06-22T08:35:11;26.70;66.50
41437;DHT22;27178;49.460;10.850;2023-06-22T08:37:40;26.70;66.30
41437;DHT22;27178;49.460;10.850;2023-06-22T08:40:10;26.70;65.80
41437;DHT22;27178;49.460;10.850;2023-06-22T08:42:40;26.70;65.50
41437;DHT22;27178;49.460;10.850;2023-06-22T08:45:10;26.70;65.00
41437;DHT22;27178;49.460;10.850;2023-06-22T08:47:39;26.80;65.20
41437;DHT22;27178;49.460;10.850;2023-06-22T08:50:09;26.80;65.10
41437;DHT22;27178;49.460;10.850;2023-06-22T08:52:38;26.80;64.80
41437;DHT22;27178;49.460;10.850;2023-06-22T08:55:09;26.80;65.10
41437;DHT22;27178;49.460;10.850;2023-06-22T08:57:39;26.80;64.80
41437;DHT22;27178;49.460;10.850;2023-06-22T09:00:08;26.90;64.70
41437;DHT22;27178;49.460;10.850;2023-06-22T09:02:43;26.90;64.40
41437;DHT22;27178;49.460;10.850;2023-06-22T09:05:12;27.00;64.90
41437;DHT22;27178;49.460;10.850;2023-06-22T09:07:41;27.00;64.80
41437;DHT22;27178;49.460;10.850;2023-06-22T09:10:10;27.00;64.80
41437;DHT22;27178;49.460;10.850;2023-06-22T09:12:40;27.10;64.70
41437;DHT22;27178;49.460;10.850;2023-06-22T09:15:09;27.10;64.40
41437;DHT22;27178;49.460;10.850;2023-06-22T09:17:42;27.20;64.50
41437;DHT22;27178;49.460;10.850;2023-06-22T09:20:11;27.20;64.70
41437;DHT22;27178;49.460;10.850;2023-06-22T09:22:40;27.30;64.70
41437;DHT22;27178;49.460;10.850;2023-06-22T09:25:09;27.30;64.50
41437;DHT22;27178;49.460;10.850;2023-06-22T09:27:37;27.40;64.40
41437;DHT22;27178;49.460;10.850;2023-06-22T09:30:08;27.40;63.80
41437;DHT22;27178;49.460;10.850;2023-06-22T09:32:37;27.50;63.50
41437;DHT22;27178;49.460;10.850;2023-06-22T09:35:06;27.60;63.60
41437;DHT22;27178;49.460;10.850;2023-06-22T09:37:36;27.60;63.50
41437;DHT22;27178;49.460;10.850;2023-06-22T09:40:06;27.60;63.20
41437;DHT22;27178;49.460;10.850;2023-06-22T09:42:37;27.70;63.20
41437;DHT22;27178;49.460;10.850;2023-06-22T09:45:08;27.70;63.20
41437;DHT22;27178;49.460;10.850;2023-06-22T09:47:37;27.80;63.30
41437;DHT22;27178;49.460;10.850;2023-06-22T09:50:06;27.80;63.60
41437;DHT22;27178;49.460;10.850;2023-06-22T09:52:35;27.90;63.30
41437;DHT22;27178;49.460;10.850;2023-06-22T09:55:07;27.90;63.80
41437;DHT22;27178;49.460;10.850;2023-06-22T09:57:36;27.90;63.50
41437;DHT22;27178;49.460;10.850;2023-06-22T10:00:05;28.00;63.10
41437;DHT22;27178;49.460;10.850;2023-06-22T10:02:40;28.10;63.20
41437;DHT22;27178;49.460;10.850;2023-06-22T10:05:09;28.10;62.90
41437;DHT22;27178;49.460;10.850;2023-06-22T10:07:38;28.10;62.80
41437;DHT22;27178;49.460;10.850;2023-06-22T10:10:10;28.20;62.30
41437;DHT22;27178;49.460;10.850;2023-06-22T10:12:42;28.20;62.40
41437;DHT22;27178;49.460;10.850;2023-06-22T10:15:11;28.30;61.80
41437;DHT22;27178;49.460;10.850;2023-06-22T10:17:41;28.30;61.80
41437;DHT22;27178;49.460;10.850;2023-06-22T10:20:10;28.40;61.70
41437;DHT22;27178;49.460;10.850;2023-06-22T10:22:43;28.50;61.70
41437;DHT22;27178;49.460;10.850;2023-06-22T10:25:14;28.50;61.70
41437;DHT22;27178;49.460;10.850;2023-06-22T10:27:42;28.60;61.00
41437;DHT22;27178;49.460;10.850;2023-06-22T10:30:18;28.60;60.80
41437;DHT22;27178;49.460;10.850;2023-06-22T10:32:47;28.70;60.40
41437;DHT22;27178;49.460;10.850;2023-06-22T10:35:16;28.80;60.20
41437;DHT22;27178;49.460;10.850;2023-06-22T10:37:45;28.80;60.30
41437;DHT22;27178;49.460;10.850;2023-06-22T10:40:17;28.90;60.20
41437;DHT22;27178;49.460;10.850;2023-06-22T10:42:50;29.00;60.10
41437;DHT22;27178;49.460;10.850;2023-06-22T10:45:19;29.10;59.50
41437;DHT22;27178;49.460;10.850;2023-06-22T10:47:49;29.20;59.40
41437;DHT22;27178;49.460;10.850;2023-06-22T10:50:18;29.20;59.00
41437;DHT22;27178;49.460;10.850;2023-06-22T10:52:47;29.30;59.10
41437;DHT22;27178;49.460;10.850;2023-06-22T10:55:21;29.40;59.10
41437;DHT22;27178;49.460;10.850;2023-06-22T10:57:49;29.50;58.90
41437;DHT22;27178;49.460;10.850;2023-06-22T11:00:19;29.50;59.40
41437;DHT22;27178;49.460;10.850;2023-06-22T11:02:49;29.60;59.60
41437;DHT22;27178;49.460;10.850;2023-06-22T11:05:17;29.70;59.60
41437;DHT22;27178;49.460;10.850;2023-06-22T11:07:46;29.90;59.70
41437;DHT22;27178;49.460;10.850;2023-06-22T11:10:16;30.00;59.80
41437;DHT22;27178;49.460;10.850;2023-06-22T11:12:45;30.10;59.60
41437;DHT22;27178;49.460;10.850;2023-06-22T11:15:13;30.30;59.50
41437;DHT22;27178;49.460;10.850;2023-06-22T11:17:41;30.50;59.20
41437;DHT22;27178;49.460;10.850;2023-06-22T11:20:12;30.60;59.10
41437;DHT22;27178;49.460;10.850;2023-06-22T11:22:41;30.80;59.00
41437;DHT22;27178;49.460;10.850;2023-06-22T11:25:09;30.90;58.80
41437;DHT22;27178;49.460;10.850;2023-06-22T11:27:39;31.00;58.70
41437;DHT22;27178;49.460;10.850;2023-06-22T11:30:09;31.20;58.50
41437;DHT22;27178;49.460;10.850;2023-06-22T11:32:38;31.30;58.20
41437;DHT22;27178;49.460;10.850;2023-06-22T11:35:07;31.50;58.20
41437;DHT22;27178;49.460;10.850;2023-06-22T11:37:37;31.60;58.10
41437;DHT22;27178;49.460;10.850;2023-06-22T11:40:06;31.70;57.60
41437;DHT22;27178;49.460;10.850;2023-06-22T11:42:35;31.80;57.50
41437;DHT22;27178;49.460;10.850;2023-06-22T11:45:05;31.90;57.30
41437;DHT22;27178;49.460;10.850;2023-06-22T11:47:33;32.10;57.00
41437;DHT22;27178;49.460;10.850;2023-06-22T11:50:03;32.20;56.80
41437;DHT22;27178;49.460;10.850;2023-06-22T11:52:32;32.30;56.30
41437;DHT22;27178;49.460;10.850;2023-06-22T11:55:05;32.40;56.40
41437;DHT22;27178;49.460;10.850;2023-06-22T11:57:35;32.50;56.00
41437;DHT22;27178;49.460;10.850;2023-06-22T12:00:04;32.60;56.40
41437;DHT22;27178;49.460;10.850;2023-06-22T12:02:41;32.70;56.20
41437;DHT22;27178;49.460;10.850;2023-06-22T12:05:10;32.90;56.00
41437;DHT22;27178;49.460;10.850;2023-06-22T12:07:39;32.40;55.30
41437;DHT22;27178;49.460;10.850;2023-06-22T12:10:10;33.10;55.60
41437;DHT22;27178;49.460;10.850;2023-06-22T12:12:38;33.20;55.20
41437;DHT22;27178;49.460;10.850;2023-06-22T12:15:07;33.40;55.10
41437;DHT22;27178;49.460;10.850;2023-06-22T12:17:35;33.40;54.90
41437;DHT22;27178;49.460;10.850;2023-06-22T12:20:05;33.60;54.80
41437;DHT22;27178;49.460;10.850;2023-06-22T12:22:34;33.60;54.60
41437;DHT22;27178;49.460;10.850;2023-06-22T12:25:05;33.70;54.40
41437;DHT22;27178;49.460;10.850;2023-06-22T12:27:35;33.80;54.30
41437;DHT22;27178;49.460;10.850;2023-06-22T12:30:04;33.80;53.80
41437;DHT22;27178;49.460;10.850;2023-06-22T12:32:33;33.90;53.80
41437;DHT22;27178;49.460;10.850;2023-06-22T12:35:01;33.90;53.80
41437;DHT22;27178;49.460;10.850;2023-06-22T12:37:30;33.90;53.90
41437;DHT22;27178;49.460;10.850;2023-06-22T12:40:00;34.00;53.90
41437;DHT22;27178;49.460;10.850;2023-06-22T12:42:30;34.10;53.90
41437;DHT22;27178;49.460;10.850;2023-06-22T12:45:00;34.10;53.50
41437;DHT22;27178;49.460;10.850;2023-06-22T12:47:28;34.20;53.30
41437;DHT22;27178;49.460;10.850;2023-06-22T12:49:57;34.30;53.20
41437;DHT22;27178;49.460;10.850;2023-06-22T12:52:25;34.40;52.90
41437;DHT22;27178;49.460;10.850;2023-06-22T12:54:53;34.50;52.20
41437;DHT22;27178;49.460;10.850;2023-06-22T12:57:22;34.50;52.10
41437;DHT22;27178;49.460;10.850;2023-06-22T12:59:51;34.60;52.10
41437;DHT22;27178;49.460;10.850;2023-06-22T13:02:24;34.60;52.20
41437;DHT22;27178;49.460;10.850;2023-06-22T13:04:53;34.60;51.90
41437;DHT22;27178;49.460;10.850;2023-06-22T13:07:22;34.60;51.80
41437;DHT22;27178;49.460;10.850;2023-06-22T13:09:50;34.60;51.80
41437;DHT22;27178;49.460;10.850;2023-06-22T13:12:20;34.70;52.00
41437;DHT22;27178;49.460;10.850;2023-06-22T13:14:48;34.70;51.80
41437;DHT22;27178;49.460;10.850;2023-06-22T13:17:17;34.80;51.40
41437;DHT22;27178;49.460;10.850;2023-06-22T13:19:47;34.80;51.50
41437;DHT22;27178;49.460;10.850;2023-06-22T13:22:29;35.00;51.10
41437;DHT22;27178;49.460;10.850;2023-06-22T13:24:59;35.00;51.10
41437;DHT22;27178;49.460;10.850;2023-06-22T13:27:28;35.10;51.20
41437;DHT22;27178;49.460;10.850;2023-06-22T13:29:56;35.20;50.80
41437;DHT22;27178;49.460;10.850;2023-06-22T13:32:25;35.30;50.80
41437;DHT22;27178;49.460;10.850;2023-06-22T13:34:55;35.30;50.50
41437;DHT22;27178;49.460;10.850;2023-06-22T13:37:23;35.20;50.40
41437;DHT22;27178;49.460;10.850;2023-06-22T13:39:52;35.10;50.40
41437;DHT22;27178;49.460;10.850;2023-06-22T13:42:23;35.10;50.30
41437;DHT22;27178;49.460;10.850;2023-06-22T13:44:52;35.00;50.10
41437;DHT22;27178;49.460;10.850;2023-06-22T13:47:20;35.00;50.00
41437;DHT22;27178;49.460;10.850;2023-06-22T13:49:48;34.90;50.40
41437;DHT22;27178;49.460;10.850;2023-06-22T13:52:18;34.80;50.30
41437;DHT22;27178;49.460;10.850;2023-06-22T13:54:46;34.70;50.30
41437;DHT22;27178;49.460;10.850;2023-06-22T13:57:15;34.70;50.30
41437;DHT22;27178;49.460;10.850;2023-06-22T13:59:43;34.60;50.50
41437;DHT22;27178;49.460;10.850;2023-06-22T14:02:12;34.60;50.80
41437;DHT22;27178;49.460;10.850;2023-06-22T14:04:41;34.70;51.00
41437;DHT22;27178;49.460;10.850;2023-06-22T14:07:09;34.70;51.10
41437;DHT22;27178;49.460;10.850;2023-06-22T14:09:41;34.80;51.30
41437;DHT22;27178;49.460;10.850;2023-06-22T14:12:10;34.90;51.10
41437;DHT22;27178;49.460;10.850;2023-06-22T14:14:39;35.00;50.90
41437;DHT22;27178;49.460;10.850;2023-06-22T14:17:07;35.00;50.90
41437;DHT22;27178;49.460;10.850;2023-06-22T14:19:36;35.00;51.20
41437;DHT22;27178;49.460;10.850;2023-06-22T14:22:05;35.00;51.00
41437;DHT22;27178;49.460;10.850;2023-06-22T14:24:33;35.00;51.00
41437;DHT22;27178;49.460;10.850;2023-06-22T14:27:03;35.00;51.20
41437;DHT22;27178;49.460;10.850;2023-06-22T14:29:35;35.00;51.30
41437;DHT22;27178;49.460;10.850;2023-06-22T14:32:03;35.00;51.10
41437;DHT22;27178;49.460;10.850;2023-06-22T14:34:33;35.00;51.30
41437;DHT22;27178;49.460;10.850;2023-06-22T14:37:03;35.00;51.20
41437;DHT22;27178;49.460;10.850;2023-06-22T14:39:32;35.00;51.30
41437;DHT22;27178;49.460;10.850;2023-06-22T14:42:01;35.00;51.30
41437;DHT22;27178;49.460;10.850;2023-06-22T14:44:31;35.00;51.30
41437;DHT22;27178;49.460;10.850;2023-06-22T14:47:00;34.90;51.20
41437;DHT22;27178;49.460;10.850;2023-06-22T14:49:28;34.90;51.30
41437;DHT22;27178;49.460;10.850;2023-06-22T14:51:57;34.90;51.40
41437;DHT22;27178;49.460;10.850;2023-06-22T14:54:25;35.00;51.50
41437;DHT22;27178;49.460;10.850;2023-06-22T14:56:54;35.10;51.30
41437;DHT22;27178;49.460;10.850;2023-06-22T14:59:22;35.20;51.50
41437;DHT22;27178;49.460;10.850;2023-06-22T15:01:52;35.30;51.50
41437;DHT22;27178;49.460;10.850;2023-06-22T15:04:20;35.50;51.30
41437;DHT22;27178;49.460;10.850;2023-06-22T15:06:49;35.60;50.50
41437;DHT22;27178;49.460;10.850;2023-06-22T15:09:17;35.70;50.00
41437;DHT22;27178;49.460;10.850;2023-06-22T15:11:46;35.90;50.50
41437;DHT22;27178;49.460;10.850;2023-06-22T15:14:14;36.10;50.40
41437;DHT22;27178;49.460;10.850;2023-06-22T15:16:43;36.20;50.10
41437;DHT22;27178;49.460;10.850;2023-06-22T15:19:13;36.40;50.30
41437;DHT22;27178;49.460;10.850;2023-06-22T15:21:41;36.50;49.80
41437;DHT22;27178;49.460;10.850;2023-06-22T15:24:09;36.60;49.70
41437;DHT22;27178;49.460;10.850;2023-06-22T15:26:38;36.60;49.70
41437;DHT22;27178;49.460;10.850;2023-06-22T15:29:07;36.70;49.60